createdAt,value
2017-07-30T00:00:51.442Z,1027.91
2017-07-30T00:01:51.443Z,1027.9
2017-07-30T00:02:51.438Z,1027.9
2017-07-30T00:03:51.436Z,1027.89
2017-07-30T00:04:51.432Z,1027.9
2017-07-30T00:05:51.427Z,1027.86
2017-07-30T00:06:51.428Z,1027.86
2017-07-30T00:07:51.424Z,1027.83
2017-07-30T00:08:51.417Z,1027.81
2017-07-30T00:09:51.416Z,1027.84
2017-07-30T00:10:51.412Z,1027.82
2017-07-30T00:11:51.406Z,1027.84
2017-07-30T00:12:51.404Z,1027.85
2017-07-30T00:13:51.398Z,1027.84
2017-07-30T00:14:51.399Z,1027.84
2017-07-30T00:15:51.397Z,1027.86
2017-07-30T00:16:51.388Z,1027.86
2017-07-30T00:17:51.389Z,1027.86
2017-07-30T00:18:51.384Z,1027.86
2017-07-30T00:19:51.380Z,1027.87
2017-07-30T00:20:51.378Z,1027.87
2017-07-30T00:21:51.369Z,1027.89
2017-07-30T00:22:51.375Z,1027.84
2017-07-30T00:23:51.367Z,1027.82
2017-07-30T00:24:51.366Z,1027.79
2017-07-30T00:25:51.357Z,1027.84
2017-07-30T00:26:51.356Z,1027.84
2017-07-30T00:27:51.352Z,1027.81
2017-07-30T00:28:51.349Z,1027.82
2017-07-30T00:29:51.343Z,1027.76
2017-07-30T00:30:51.344Z,1027.78
2017-07-30T00:31:51.341Z,1027.81
2017-07-30T00:32:51.333Z,1027.83
2017-07-30T00:33:51.329Z,1027.85
2017-07-30T00:34:51.327Z,1027.87
2017-07-30T00:35:51.326Z,1027.88
2017-07-30T00:36:51.320Z,1027.85
2017-07-30T00:37:51.315Z,1027.8
2017-07-30T00:38:51.314Z,1027.79
2017-07-30T00:39:51.310Z,1027.76
2017-07-30T00:40:51.308Z,1027.73
2017-07-30T00:41:51.303Z,1027.71
2017-07-30T00:42:51.301Z,1027.69
2017-07-30T00:43:51.293Z,1027.72
2017-07-30T00:44:51.293Z,1027.7
2017-07-30T00:45:51.290Z,1027.69
2017-07-30T00:46:51.288Z,1027.72
2017-07-30T00:47:51.278Z,1027.71
2017-07-30T00:48:51.278Z,1027.76
2017-07-30T00:49:51.275Z,1027.75
2017-07-30T00:50:51.273Z,1027.74
2017-07-30T00:51:51.267Z,1027.77
2017-07-30T00:52:51.268Z,1027.73
2017-07-30T00:53:51.262Z,1027.71
2017-07-30T00:54:51.260Z,1027.76
2017-07-30T00:55:51.249Z,1027.78
2017-07-30T00:56:51.251Z,1027.82
2017-07-30T00:57:51.243Z,1027.82
2017-07-30T00:58:51.243Z,1027.77
2017-07-30T00:59:51.237Z,1027.79
2017-07-30T01:00:51.235Z,1027.76
2017-07-30T01:01:51.232Z,1027.76
2017-07-30T01:02:51.230Z,1027.75
2017-07-30T01:03:51.227Z,1027.68
2017-07-30T01:04:51.219Z,1027.69
2017-07-30T01:05:51.219Z,1027.7
2017-07-30T01:06:51.212Z,1027.64
2017-07-30T01:07:51.212Z,1027.64
2017-07-30T01:08:51.208Z,1027.67
2017-07-30T01:09:51.201Z,1027.66
2017-07-30T01:10:51.197Z,1027.68
2017-07-30T01:11:51.196Z,1027.68
2017-07-30T01:12:51.189Z,1027.69
2017-07-30T01:13:51.186Z,1027.69
2017-07-30T01:14:51.189Z,1027.7
2017-07-30T01:15:51.185Z,1027.69
2017-07-30T01:16:51.176Z,1027.69
2017-07-30T01:17:51.173Z,1027.68
2017-07-30T01:18:51.170Z,1027.67
2017-07-30T01:19:51.169Z,1027.66
2017-07-30T01:20:51.163Z,1027.65
2017-07-30T01:21:51.158Z,1027.68
2017-07-30T01:22:51.157Z,1027.66
2017-07-30T01:23:51.151Z,1027.68
2017-07-30T01:24:51.144Z,1027.66
2017-07-30T01:25:51.347Z,1027.62
2017-07-30T01:26:51.140Z,1027.59
2017-07-30T01:27:51.136Z,1027.57
2017-07-30T01:28:51.129Z,1027.57
2017-07-30T01:29:51.132Z,1027.57
2017-07-30T01:30:51.122Z,1027.59
2017-07-30T01:31:51.124Z,1027.57
2017-07-30T01:32:51.126Z,1027.54
2017-07-30T01:33:51.118Z,1027.53
2017-07-30T01:34:51.112Z,1027.53
2017-07-30T01:35:51.104Z,1027.55
2017-07-30T01:36:51.103Z,1027.54
2017-07-30T01:37:51.101Z,1027.55
2017-07-30T01:38:51.095Z,1027.53
2017-07-30T01:39:51.092Z,1027.54
2017-07-30T01:40:51.087Z,1027.5
2017-07-30T01:41:51.088Z,1027.52
2017-07-30T01:42:51.082Z,1027.48
2017-07-30T01:43:51.077Z,1027.46
2017-07-30T01:44:51.070Z,1027.47
2017-07-30T01:45:51.071Z,1027.47
2017-07-30T01:46:51.091Z,1027.46
2017-07-30T01:47:51.066Z,1027.44
2017-07-30T01:48:51.061Z,1027.47
2017-07-30T01:49:51.055Z,1027.42
2017-07-30T01:50:51.052Z,1027.41
2017-07-30T01:51:51.047Z,1027.43
2017-07-30T01:52:51.045Z,1027.44
2017-07-30T01:53:51.043Z,1027.42
2017-07-30T01:54:51.037Z,1027.41
2017-07-30T01:55:51.031Z,1027.4
2017-07-30T01:56:51.028Z,1027.34
2017-07-30T01:57:51.025Z,1027.33
2017-07-30T01:58:51.020Z,1027.28
2017-07-30T01:59:51.019Z,1027.27
2017-07-30T02:00:51.015Z,1027.23
2017-07-30T02:01:51.011Z,1027.25
2017-07-30T02:02:51.007Z,1027.22
2017-07-30T02:03:51.002Z,1027.22
2017-07-30T02:04:50.999Z,1027.22
2017-07-30T02:05:50.996Z,1027.22
2017-07-30T02:06:50.988Z,1027.23
2017-07-30T02:07:50.986Z,1027.17
2017-07-30T02:08:50.985Z,1027.15
2017-07-30T02:09:50.980Z,1027.1
2017-07-30T02:10:50.977Z,1027.07
2017-07-30T02:11:50.972Z,1027.05
2017-07-30T02:12:50.969Z,1027.08
2017-07-30T02:13:50.965Z,1027.1
2017-07-30T02:14:50.962Z,1027.12
2017-07-30T02:15:50.955Z,1027.14
2017-07-30T02:16:50.955Z,1027.08
2017-07-30T02:17:50.953Z,1027.13
2017-07-30T02:18:50.945Z,1027.11
2017-07-30T02:19:50.946Z,1027.09
2017-07-30T02:20:50.941Z,1027.1
2017-07-30T02:21:50.937Z,1027.08
2017-07-30T02:22:50.929Z,1027.1
2017-07-30T02:23:50.926Z,1027.1
2017-07-30T02:24:50.925Z,1027.12
2017-07-30T02:25:50.922Z,1027.11
2017-07-30T02:26:50.917Z,1027.11
2017-07-30T02:27:50.910Z,1027.12
2017-07-30T02:28:50.912Z,1027.08
2017-07-30T02:29:50.906Z,1027.09
2017-07-30T02:30:50.902Z,1027.1
2017-07-30T02:31:50.898Z,1027.13
2017-07-30T02:32:50.891Z,1027.12
2017-07-30T02:33:50.891Z,1027.14
2017-07-30T02:34:50.890Z,1027.1
2017-07-30T02:35:50.885Z,1027.11
2017-07-30T02:36:50.883Z,1027.16
2017-07-30T02:37:50.880Z,1027.09
2017-07-30T02:38:50.871Z,1027.12
2017-07-30T02:39:50.866Z,1027.15
2017-07-30T02:40:50.866Z,1027.13
2017-07-30T02:41:50.862Z,1027.13
2017-07-30T02:42:50.861Z,1027.14
2017-07-30T02:43:50.852Z,1027.1
2017-07-30T02:44:50.850Z,1027.07
2017-07-30T02:45:50.848Z,1027.08
2017-07-30T02:46:50.843Z,1027.09
2017-07-30T02:47:50.842Z,1027.09
2017-07-30T02:48:50.836Z,1027.13
2017-07-30T02:49:50.835Z,1027.12
2017-07-30T02:50:50.833Z,1027.15
2017-07-30T02:51:50.826Z,1027.13
2017-07-30T02:52:50.820Z,1027.11
2017-07-30T02:53:50.818Z,1027.15
2017-07-30T02:54:50.815Z,1027.09
2017-07-30T02:55:50.809Z,1027.03
2017-07-30T02:56:50.807Z,1026.99
2017-07-30T02:57:50.806Z,1026.99
2017-07-30T02:58:50.799Z,1026.99
2017-07-30T02:59:50.791Z,1026.95
2017-07-30T03:00:50.794Z,1026.95
2017-07-30T03:01:50.789Z,1026.94
2017-07-30T03:02:50.787Z,1026.98
2017-07-30T03:03:50.782Z,1026.94
2017-07-30T03:04:50.781Z,1026.95
2017-07-30T03:05:50.772Z,1026.93
2017-07-30T03:06:50.770Z,1026.89
2017-07-30T03:07:50.767Z,1026.92
2017-07-30T03:08:50.762Z,1026.86
2017-07-30T03:09:50.756Z,1026.81
2017-07-30T03:10:50.758Z,1026.8
2017-07-30T03:11:50.753Z,1026.77
2017-07-30T03:12:50.748Z,1026.77
2017-07-30T03:13:50.744Z,1026.74
2017-07-30T03:14:50.737Z,1026.68
2017-07-30T03:15:50.739Z,1026.65
2017-07-30T03:16:50.732Z,1026.64
2017-07-30T03:17:50.731Z,1026.64
2017-07-30T03:18:50.727Z,1026.67
2017-07-30T03:19:50.721Z,1026.67
2017-07-30T03:20:50.717Z,1026.72
2017-07-30T03:21:50.715Z,1026.7
2017-07-30T03:22:50.713Z,1026.67
2017-07-30T03:23:50.708Z,1026.65
2017-07-30T03:24:50.700Z,1026.67
2017-07-30T03:25:50.708Z,1026.66
2017-07-30T03:26:50.701Z,1026.65
2017-07-30T03:27:50.693Z,1026.65
2017-07-30T03:28:50.685Z,1026.66
2017-07-30T03:29:50.685Z,1026.66
2017-07-30T03:30:50.681Z,1026.66
2017-07-30T03:31:50.677Z,1026.66
2017-07-30T03:32:50.670Z,1026.65
2017-07-30T03:33:50.668Z,1026.64
2017-07-30T03:34:50.666Z,1026.64
2017-07-30T03:35:50.663Z,1026.65
2017-07-30T03:36:50.655Z,1026.65
2017-07-30T03:37:50.654Z,1026.65
2017-07-30T03:38:50.648Z,1026.64
2017-07-30T03:39:50.646Z,1026.62
2017-07-30T03:40:50.642Z,1026.57
2017-07-30T03:41:50.642Z,1026.57
2017-07-30T03:42:50.636Z,1026.55
2017-07-30T03:43:50.633Z,1026.55
2017-07-30T03:44:50.631Z,1026.52
2017-07-30T03:45:50.628Z,1026.49
2017-07-30T03:46:50.619Z,1026.49
2017-07-30T03:47:50.621Z,1026.44
2017-07-30T03:48:50.612Z,1026.42
2017-07-30T03:49:50.613Z,1026.44
2017-07-30T03:50:50.604Z,1026.44
2017-07-30T03:51:50.606Z,1026.42
2017-07-30T03:52:50.601Z,1026.39
2017-07-30T03:53:50.596Z,1026.37
2017-07-30T03:54:50.593Z,1026.34
2017-07-30T03:55:50.588Z,1026.3
2017-07-30T03:56:50.584Z,1026.26
2017-07-30T03:57:50.583Z,1026.25
2017-07-30T03:58:50.574Z,1026.24
2017-07-30T03:59:50.572Z,1026.23
2017-07-30T04:00:50.570Z,1026.1
2017-07-30T04:01:50.567Z,1026.04
2017-07-30T04:02:50.561Z,1025.86
2017-07-30T04:03:50.561Z,1025.64
2017-07-30T04:04:50.557Z,1025.36
2017-07-30T04:05:50.557Z,1025.11
2017-07-30T04:06:50.548Z,1024.84
2017-07-30T04:07:50.550Z,1024.64
2017-07-30T04:08:50.540Z,1024.45
2017-07-30T04:09:50.539Z,1024.3
2017-07-30T04:10:50.538Z,1024.12
2017-07-30T04:11:50.537Z,1023.95
2017-07-30T04:12:50.535Z,1023.78
2017-07-30T04:13:50.533Z,1023.62
2017-07-30T04:14:50.531Z,1023.45
2017-07-30T04:15:50.525Z,1023.31
2017-07-30T04:16:50.527Z,1023.19
2017-07-30T04:17:50.521Z,1023.08
2017-07-30T04:18:50.524Z,1023.01
2017-07-30T04:19:50.524Z,1022.92
2017-07-30T04:20:50.518Z,1022.76
2017-07-30T04:21:50.522Z,1022.71
2017-07-30T04:22:50.521Z,1022.55
2017-07-30T04:23:50.519Z,1022.5
2017-07-30T04:24:50.516Z,1022.36
2017-07-30T04:25:50.520Z,1022.21
2017-07-30T04:26:50.521Z,1022.12
2017-07-30T04:27:50.519Z,1022.06
2017-07-30T04:28:50.521Z,1021.94
2017-07-30T04:29:50.523Z,1021.84
2017-07-30T04:30:50.525Z,1021.77
2017-07-30T04:31:50.524Z,1021.71
2017-07-30T04:32:50.531Z,1021.62
2017-07-30T04:33:50.531Z,1021.54
2017-07-30T04:34:50.533Z,1021.4
2017-07-30T04:35:50.538Z,1021.33
2017-07-30T04:36:50.542Z,1021.26
2017-07-30T04:37:50.542Z,1021.11
2017-07-30T04:38:50.549Z,1021.06
2017-07-30T04:39:50.553Z,1020.93
2017-07-30T04:40:50.552Z,1020.87
2017-07-30T04:41:50.558Z,1020.77
2017-07-30T04:42:50.563Z,1020.7
2017-07-30T04:43:50.568Z,1020.61
2017-07-30T04:44:50.572Z,1020.54
2017-07-30T04:45:50.577Z,1020.43
2017-07-30T04:46:50.578Z,1020.33
2017-07-30T04:47:50.585Z,1020.26
2017-07-30T04:48:50.594Z,1020.19
2017-07-30T04:49:50.599Z,1020.13
2017-07-30T04:50:50.603Z,1020
2017-07-30T04:51:50.611Z,1019.91
2017-07-30T04:52:50.618Z,1019.86
2017-07-30T04:53:50.620Z,1019.8
2017-07-30T04:54:50.631Z,1019.75
2017-07-30T04:55:50.634Z,1019.67
2017-07-30T04:56:50.642Z,1019.62
2017-07-30T04:57:50.650Z,1019.59
2017-07-30T04:58:50.656Z,1019.51
2017-07-30T04:59:50.664Z,1019.49
2017-07-30T05:00:50.672Z,1019.43
2017-07-30T05:01:50.677Z,1019.35
2017-07-30T05:02:50.686Z,1019.23
2017-07-30T05:03:50.693Z,1019.15
2017-07-30T05:04:50.703Z,1019.11
2017-07-30T05:05:50.710Z,1019.1
2017-07-30T05:06:50.719Z,1019.06
2017-07-30T05:07:50.724Z,1019.06
2017-07-30T05:08:50.736Z,1019.03
2017-07-30T05:09:50.744Z,1019
2017-07-30T05:10:50.753Z,1018.91
2017-07-30T05:11:50.757Z,1018.86
2017-07-30T05:12:50.768Z,1018.83
2017-07-30T05:13:50.779Z,1018.8
2017-07-30T05:14:50.785Z,1018.71
2017-07-30T05:15:50.794Z,1018.72
2017-07-30T05:16:50.802Z,1018.57
2017-07-30T05:17:50.818Z,1018.55
2017-07-30T05:18:50.824Z,1018.51
2017-07-30T05:19:50.833Z,1018.53
2017-07-30T05:20:50.844Z,1018.52
2017-07-30T05:21:50.849Z,1018.51
2017-07-30T05:22:50.860Z,1018.46
2017-07-30T05:23:50.876Z,1018.41
2017-07-30T05:24:50.883Z,1018.38
2017-07-30T05:25:50.893Z,1018.33
2017-07-30T05:26:50.899Z,1018.34
2017-07-30T05:27:50.913Z,1018.34
2017-07-30T05:28:50.924Z,1018.35
2017-07-30T05:29:50.935Z,1018.36
2017-07-30T05:30:50.945Z,1018.33
2017-07-30T05:31:50.955Z,1018.25
2017-07-30T05:32:50.991Z,1018.2
2017-07-30T05:33:50.973Z,1018.18
2017-07-30T05:34:50.988Z,1018.16
2017-07-30T05:35:51.000Z,1018.12
2017-07-30T05:36:51.010Z,1018.12
2017-07-30T05:37:51.022Z,1018.11
2017-07-30T05:38:51.033Z,1018.11
2017-07-30T05:39:51.047Z,1018.03
2017-07-30T05:40:51.054Z,1018.02
2017-07-30T05:41:51.064Z,1017.95
2017-07-30T05:42:51.073Z,1017.9
2017-07-30T05:43:51.096Z,1017.84
2017-07-30T05:44:51.097Z,1017.73
2017-07-30T05:45:51.122Z,1017.66
2017-07-30T05:46:51.127Z,1017.67
2017-07-30T05:47:51.137Z,1017.67
2017-07-30T05:48:51.177Z,1017.64
2017-07-30T05:49:51.165Z,1017.57
2017-07-30T05:50:51.175Z,1017.56
2017-07-30T05:51:51.188Z,1017.41
2017-07-30T05:52:51.200Z,1017.33
2017-07-30T05:53:51.213Z,1017.28
2017-07-30T05:54:51.223Z,1017.25
2017-07-30T05:55:51.240Z,1017.25
2017-07-30T05:56:51.248Z,1017.18
2017-07-30T05:57:51.264Z,1017.13
2017-07-30T05:58:51.275Z,1017.12
2017-07-30T05:59:51.292Z,1017.09
2017-07-30T06:00:51.306Z,1017.09
2017-07-30T06:01:51.320Z,1017.15
2017-07-30T06:02:51.332Z,1017.27
2017-07-30T06:03:51.344Z,1017.29
2017-07-30T06:04:51.360Z,1017.19
2017-07-30T06:05:51.370Z,1017.07
2017-07-30T06:06:51.386Z,1017.05
2017-07-30T06:07:51.398Z,1016.96
2017-07-30T06:08:51.412Z,1016.92
2017-07-30T06:09:51.428Z,1016.97
2017-07-30T06:10:51.442Z,1017
2017-07-30T06:11:51.458Z,1016.89
2017-07-30T06:12:51.472Z,1016.8
2017-07-30T06:13:51.483Z,1016.78
2017-07-30T06:14:51.502Z,1016.78
2017-07-30T06:15:51.514Z,1016.81
2017-07-30T06:16:51.531Z,1016.78
2017-07-30T06:17:51.544Z,1016.62
2017-07-30T06:18:51.560Z,1016.56
2017-07-30T06:19:51.575Z,1016.54
2017-07-30T06:20:51.589Z,1016.54
2017-07-30T06:21:51.606Z,1016.39
2017-07-30T06:22:51.618Z,1016.32
2017-07-30T06:23:51.635Z,1016.31
2017-07-30T06:24:51.652Z,1016.27
2017-07-30T06:25:51.665Z,1016.3
2017-07-30T06:26:51.682Z,1016.41
2017-07-30T06:27:51.697Z,1016.32
2017-07-30T06:28:51.717Z,1016.22
2017-07-30T06:29:51.731Z,1016.14
2017-07-30T06:30:51.747Z,1016.13
2017-07-30T06:31:51.762Z,1016.1
2017-07-30T06:32:51.780Z,1016.08
2017-07-30T06:33:51.793Z,1015.97
2017-07-30T06:34:51.814Z,1015.89
2017-07-30T06:35:51.825Z,1015.78
2017-07-30T06:36:51.845Z,1015.7
2017-07-30T06:37:51.863Z,1015.65
2017-07-30T06:38:51.878Z,1015.57
2017-07-30T06:39:51.898Z,1015.59
2017-07-30T06:40:51.916Z,1015.56
2017-07-30T06:41:51.930Z,1015.57
2017-07-30T06:42:51.950Z,1015.55
2017-07-30T06:43:51.968Z,1015.54
2017-07-30T06:44:51.982Z,1015.52
2017-07-30T06:45:52.002Z,1015.47
2017-07-30T06:46:52.022Z,1015.37
2017-07-30T06:47:52.036Z,1015.23
2017-07-30T06:48:52.059Z,1015.2
2017-07-30T06:49:52.092Z,1015.09
2017-07-30T06:50:52.096Z,1015
2017-07-30T06:52:52.277Z,1014.97
2017-07-30T06:53:52.149Z,1014.98
2017-07-30T06:54:52.167Z,1014.98
2017-07-30T06:55:52.182Z,1014.96
2017-07-30T06:56:52.200Z,1014.88
2017-07-30T06:57:52.223Z,1014.81
2017-07-30T06:58:52.242Z,1014.84
2017-07-30T06:59:52.259Z,1014.87
2017-07-30T07:00:52.277Z,1014.84
2017-07-30T07:02:05.035Z,1014.82
2017-07-30T07:02:52.316Z,1014.72
2017-07-30T07:03:52.331Z,1014.68
2017-07-30T07:04:52.350Z,1014.71
2017-07-30T07:05:52.369Z,1014.73
2017-07-30T07:06:52.391Z,1014.77
2017-07-30T07:07:52.404Z,1014.83
2017-07-30T07:08:52.430Z,1014.89
2017-07-30T07:09:52.449Z,1014.91
2017-07-30T07:10:52.469Z,1014.93
2017-07-30T07:11:52.486Z,1014.92
2017-07-30T07:12:52.555Z,1014.92
2017-07-30T07:13:52.523Z,1014.93
2017-07-30T07:14:52.542Z,1014.91
2017-07-30T07:15:52.558Z,1014.85
2017-07-30T07:16:52.581Z,1014.7
2017-07-30T07:17:52.604Z,1014.68
2017-07-30T07:18:52.622Z,1014.66
2017-07-30T07:19:52.640Z,1014.65
2017-07-30T07:20:52.660Z,1014.67
2017-07-30T07:21:52.675Z,1014.68
2017-07-30T07:22:52.696Z,1014.69
2017-07-30T07:23:52.742Z,1014.65
2017-07-30T07:24:52.740Z,1014.62
2017-07-30T07:25:52.758Z,1014.58
2017-07-30T07:26:52.773Z,1014.57
2017-07-30T07:27:52.797Z,1014.58
2017-07-30T07:28:52.817Z,1014.6
2017-07-30T07:29:52.836Z,1014.58
2017-07-30T07:30:52.856Z,1014.62
2017-07-30T07:31:52.876Z,1014.72
2017-07-30T07:32:52.892Z,1014.68
2017-07-30T07:33:52.914Z,1014.72
2017-07-30T07:34:52.935Z,1014.77
2017-07-30T07:35:52.953Z,1014.76
2017-07-30T07:36:52.977Z,1014.76
2017-07-30T07:37:52.994Z,1014.83
2017-07-30T07:38:53.014Z,1014.84
2017-07-30T07:39:53.033Z,1014.97
2017-07-30T07:40:53.049Z,1015.03
2017-07-30T07:41:53.068Z,1014.96
2017-07-30T07:42:53.089Z,1014.88
2017-07-30T07:43:53.113Z,1014.8
2017-07-30T07:44:53.134Z,1014.76
2017-07-30T07:45:53.152Z,1014.8
2017-07-30T07:46:53.172Z,1014.75
2017-07-30T07:47:53.190Z,1014.72
2017-07-30T07:48:53.211Z,1014.76
2017-07-30T07:49:53.231Z,1014.8
2017-07-30T07:50:53.249Z,1014.79
2017-07-30T07:51:53.267Z,1014.79
2017-07-30T07:52:53.288Z,1014.92
2017-07-30T07:53:53.306Z,1014.94
2017-07-30T07:54:53.330Z,1014.98
2017-07-30T07:55:53.352Z,1015.08
2017-07-30T07:56:53.372Z,1015.04
2017-07-30T07:57:53.392Z,1015.12
2017-07-30T07:58:53.409Z,1015.19
2017-07-30T07:59:53.426Z,1015.22
2017-07-30T08:00:53.445Z,1015.16
2017-07-30T08:01:53.470Z,1015.08
2017-07-30T08:02:53.487Z,1015.04
2017-07-30T08:03:53.509Z,1015.01
2017-07-30T08:04:53.556Z,1014.91
2017-07-30T08:05:53.545Z,1014.79
2017-07-30T08:06:53.576Z,1014.64
2017-07-30T08:07:53.585Z,1014.53
2017-07-30T08:08:53.609Z,1014.42
2017-07-30T08:09:53.630Z,1014.22
2017-07-30T08:10:53.649Z,1014.19
2017-07-30T08:11:53.672Z,1014.11
2017-07-30T08:12:53.696Z,1013.96
2017-07-30T08:13:53.713Z,1013.75
2017-07-30T08:14:53.736Z,1013.45
2017-07-30T08:15:53.756Z,1013.27
2017-07-30T08:16:53.778Z,1013.15
2017-07-30T08:17:53.800Z,1013.11
2017-07-30T08:18:53.823Z,1013.14
2017-07-30T08:19:53.845Z,1013.16
2017-07-30T08:20:53.863Z,1013.29
2017-07-30T08:21:53.885Z,1013.32
2017-07-30T08:22:53.907Z,1013.62
2017-07-30T08:23:53.929Z,1013.97
2017-07-30T08:24:53.948Z,1014.25
2017-07-30T08:25:53.973Z,1014.48
2017-07-30T08:26:53.992Z,1014.62
2017-07-30T08:27:54.017Z,1014.74
2017-07-30T08:28:54.032Z,1014.84
2017-07-30T08:29:54.059Z,1014.88
2017-07-30T08:30:54.078Z,1014.89
2017-07-30T08:31:54.098Z,1014.96
2017-07-30T08:32:54.116Z,1015.07
2017-07-30T08:33:54.141Z,1015.13
2017-07-30T08:34:54.162Z,1015.13
2017-07-30T08:35:54.181Z,1015.21
2017-07-30T08:36:54.200Z,1015.23
2017-07-30T08:37:54.220Z,1015.35
2017-07-30T08:38:54.238Z,1015.4
2017-07-30T08:39:54.258Z,1015.39
2017-07-30T08:40:54.279Z,1015.42
2017-07-30T08:41:54.300Z,1015.35
2017-07-30T08:42:54.319Z,1015.27
2017-07-30T08:43:54.335Z,1015.32
2017-07-30T08:44:54.359Z,1015.37
2017-07-30T08:45:54.374Z,1015.41
2017-07-30T08:46:54.396Z,1015.43
2017-07-30T08:47:54.414Z,1015.54
2017-07-30T08:48:54.433Z,1015.6
2017-07-30T08:49:54.447Z,1015.83
2017-07-30T08:50:54.466Z,1016.37
2017-07-30T08:51:54.484Z,1017.22
2017-07-30T08:52:54.508Z,1017.89
2017-07-30T08:53:54.521Z,1018.45
2017-07-30T08:54:54.542Z,1018.96
2017-07-30T08:55:54.558Z,1019.28
2017-07-30T08:56:54.571Z,1019.58
2017-07-30T08:57:54.593Z,1019.87
2017-07-30T08:58:54.603Z,1020.07
2017-07-30T08:59:54.622Z,1020.37
2017-07-30T09:00:54.634Z,1020.47
2017-07-30T09:01:54.652Z,1020.7
2017-07-30T09:02:54.666Z,1020.9
2017-07-30T09:03:54.679Z,1021
2017-07-30T09:04:54.691Z,1021.18
2017-07-30T09:05:54.703Z,1021.26
2017-07-30T09:07:54.728Z,1021.47
2017-07-30T09:08:54.743Z,1021.57
2017-07-30T09:09:54.750Z,1021.62
2017-07-30T09:10:54.757Z,1021.75
2017-07-30T09:12:55.187Z,1021.78
2017-07-30T09:13:54.790Z,1021.82
2017-07-30T09:14:54.800Z,1021.81
2017-07-30T09:15:54.811Z,1021.85
2017-07-30T09:16:54.822Z,1021.77
2017-07-30T09:17:54.830Z,1021.83
2017-07-30T09:19:54.848Z,1021.81
2017-07-30T09:20:54.852Z,1021.81
2017-07-30T09:21:55.271Z,1021.82
2017-07-30T09:22:54.874Z,1021.88
2017-07-30T09:24:54.889Z,1021.83
2017-07-30T09:25:54.894Z,1021.81
2017-07-30T09:26:54.906Z,1021.81
2017-07-30T09:27:54.911Z,1021.72
2017-07-30T09:28:54.922Z,1021.66
2017-07-30T09:29:54.927Z,1021.52
2017-07-30T09:30:54.936Z,1021.45
2017-07-30T09:31:54.941Z,1021.43
2017-07-30T09:32:54.953Z,1021.33
2017-07-30T09:33:54.962Z,1021.22
2017-07-30T09:34:54.965Z,1021.15
2017-07-30T09:35:54.973Z,1021.12
2017-07-30T09:36:54.979Z,1021.12
2017-07-30T09:37:54.990Z,1021.15
2017-07-30T09:38:54.995Z,1021.14
2017-07-30T09:39:55.004Z,1021.22
2017-07-30T09:40:55.011Z,1021.26
2017-07-30T09:41:55.023Z,1021.23
2017-07-30T09:42:55.029Z,1021.24
2017-07-30T09:43:55.037Z,1021.29
2017-07-30T09:44:55.043Z,1021.3
2017-07-30T09:45:55.049Z,1021.3
2017-07-30T09:46:55.054Z,1021.27
2017-07-30T09:47:55.064Z,1021.22
2017-07-30T09:48:55.070Z,1021.26
2017-07-30T09:49:55.082Z,1021.32
2017-07-30T09:50:55.091Z,1021.28
2017-07-30T09:51:55.096Z,1021.35
2017-07-30T09:52:55.102Z,1021.3
2017-07-30T09:53:55.109Z,1021.26
2017-07-30T09:54:55.123Z,1021.23
2017-07-30T09:55:55.424Z,1021.18
2017-07-30T09:56:55.133Z,1021.12
2017-07-30T09:57:55.142Z,1021.08
2017-07-30T09:58:55.146Z,1021.02
2017-07-30T09:59:55.155Z,1020.98
2017-07-30T10:00:55.159Z,1021.01
2017-07-30T10:01:55.171Z,1020.97
2017-07-30T10:02:55.177Z,1020.93
2017-07-30T10:03:55.186Z,1020.9
2017-07-30T10:04:55.191Z,1020.89
2017-07-30T10:05:55.200Z,1020.91
2017-07-30T10:06:55.206Z,1020.89
2017-07-30T10:07:55.212Z,1020.88
2017-07-30T10:08:55.224Z,1020.83
2017-07-30T10:09:55.230Z,1020.8
2017-07-30T10:10:55.235Z,1020.75
2017-07-30T10:11:55.247Z,1020.75
2017-07-30T10:12:55.258Z,1020.63
2017-07-30T10:13:55.258Z,1020.62
2017-07-30T10:14:55.262Z,1020.65
2017-07-30T10:15:55.272Z,1020.56
2017-07-30T10:16:55.282Z,1020.54
2017-07-30T10:17:55.290Z,1020.49
2017-07-30T10:18:55.296Z,1020.53
2017-07-30T10:19:55.303Z,1020.51
2017-07-30T10:20:55.311Z,1020.45
2017-07-30T10:21:55.317Z,1020.31
2017-07-30T10:22:55.323Z,1020.3
2017-07-30T10:23:55.331Z,1020.21
2017-07-30T10:24:55.343Z,1020.05
2017-07-30T10:25:55.347Z,1019.91
2017-07-30T10:26:55.357Z,1019.91
2017-07-30T10:27:55.361Z,1019.82
2017-07-30T10:28:55.374Z,1019.85
2017-07-30T10:29:55.380Z,1019.76
2017-07-30T10:30:55.387Z,1019.67
2017-07-30T10:31:55.396Z,1019.64
2017-07-30T10:32:55.401Z,1019.64
2017-07-30T10:33:55.411Z,1019.62
2017-07-30T10:34:55.417Z,1019.6
2017-07-30T10:35:55.423Z,1019.65
2017-07-30T10:36:55.435Z,1019.63
2017-07-30T10:37:55.448Z,1019.68
2017-07-30T10:38:55.455Z,1019.69
2017-07-30T10:39:55.459Z,1019.75
2017-07-30T10:40:55.467Z,1019.63
2017-07-30T10:41:55.470Z,1019.68
2017-07-30T10:42:55.478Z,1019.64
2017-07-30T10:43:55.486Z,1019.63
2017-07-30T10:44:55.499Z,1019.62
2017-07-30T10:45:55.503Z,1019.5
2017-07-30T10:46:55.516Z,1019.53
2017-07-30T10:47:55.623Z,1019.45
2017-07-30T10:48:55.532Z,1019.49
2017-07-30T10:49:55.536Z,1019.31
2017-07-30T10:50:55.545Z,1019.36
2017-07-30T10:51:55.554Z,1019.33
2017-07-30T10:52:55.562Z,1019.33
2017-07-30T10:53:55.569Z,1019.34
2017-07-30T10:54:55.574Z,1019.32
2017-07-30T10:55:55.588Z,1019.31
2017-07-30T10:56:55.595Z,1019.35
2017-07-30T10:57:55.602Z,1019.31
2017-07-30T10:58:55.609Z,1019.25
2017-07-30T10:59:55.621Z,1019.27
2017-07-30T11:00:55.626Z,1019.22
2017-07-30T11:01:55.635Z,1019.18
2017-07-30T11:02:55.644Z,1019.14
2017-07-30T11:03:55.652Z,1019.08
2017-07-30T11:04:55.662Z,1019.05
2017-07-30T11:05:55.667Z,1019.06
2017-07-30T11:06:55.675Z,1019.01
2017-07-30T11:07:55.689Z,1019.03
2017-07-30T11:08:55.690Z,1018.99
2017-07-30T11:09:55.699Z,1018.98
2017-07-30T11:10:55.711Z,1018.92
2017-07-30T11:11:55.719Z,1018.96
2017-07-30T11:12:55.727Z,1018.99
2017-07-30T11:13:55.738Z,1018.95
2017-07-30T11:14:55.747Z,1018.94
2017-07-30T11:15:55.750Z,1018.88
2017-07-30T11:16:55.764Z,1018.86
2017-07-30T11:17:55.772Z,1018.74
2017-07-30T11:18:55.782Z,1018.79
2017-07-30T11:19:55.789Z,1018.76
2017-07-30T11:20:55.797Z,1018.72
2017-07-30T11:21:55.806Z,1018.71
2017-07-30T11:22:55.815Z,1018.69
2017-07-30T11:23:55.819Z,1018.67
2017-07-30T11:24:55.833Z,1018.63
2017-07-30T11:25:55.842Z,1018.56
2017-07-30T11:26:55.851Z,1018.64
2017-07-30T11:27:55.855Z,1018.61
2017-07-30T11:28:55.865Z,1018.58
2017-07-30T11:29:55.880Z,1018.55
2017-07-30T11:30:55.886Z,1018.62
2017-07-30T11:31:55.895Z,1018.59
2017-07-30T11:32:55.904Z,1018.56
2017-07-30T11:33:55.911Z,1018.57
2017-07-30T11:34:55.923Z,1018.57
2017-07-30T11:35:55.931Z,1018.53
2017-07-30T11:36:55.939Z,1018.54
2017-07-30T11:37:55.944Z,1018.61
2017-07-30T11:38:55.959Z,1018.5
2017-07-30T11:39:55.964Z,1018.55
2017-07-30T11:40:55.977Z,1018.52
2017-07-30T11:41:55.986Z,1018.5
2017-07-30T11:42:55.992Z,1018.43
2017-07-30T11:43:56.001Z,1018.5
2017-07-30T11:44:56.012Z,1018.45
2017-07-30T11:45:56.020Z,1018.45
2017-07-30T11:46:56.035Z,1018.4
2017-07-30T11:47:56.038Z,1018.36
2017-07-30T11:48:56.046Z,1018.32
2017-07-30T11:49:56.054Z,1018.31
2017-07-30T11:50:56.064Z,1018.27
2017-07-30T11:51:56.072Z,1018.31
2017-07-30T11:52:56.084Z,1018.35
2017-07-30T11:53:56.095Z,1018.41
2017-07-30T11:54:56.102Z,1018.28
2017-07-30T11:55:56.110Z,1018.31
2017-07-30T11:56:56.119Z,1018.3
2017-07-30T11:57:56.129Z,1018.26
2017-07-30T11:58:56.138Z,1018.21
2017-07-30T11:59:56.145Z,1018.2
2017-07-30T12:00:56.156Z,1018.19
2017-07-30T12:01:56.166Z,1018.19
2017-07-30T12:02:56.174Z,1018.17
2017-07-30T12:03:56.183Z,1018.22
2017-07-30T12:04:56.188Z,1018.21
2017-07-30T12:05:56.200Z,1018.17
2017-07-30T12:06:56.207Z,1018.15
2017-07-30T12:07:56.220Z,1018.16
2017-07-30T12:08:56.250Z,1018.15
2017-07-30T12:09:56.240Z,1018.2
2017-07-30T12:10:56.246Z,1018.2
2017-07-30T12:11:56.258Z,1018.2
2017-07-30T12:12:56.268Z,1018.18
2017-07-30T12:13:56.278Z,1018.22